• Join FlightAware (Why Join?)
  • Login
  • US Flag 
11:15PM EDT


 

Airport Tracker/Info


-or-


 

Live Flight TrackerFlight Track Log ✈ TSS5 ✈ 18-Jun-2013 ✈ C66 - KEVV

Flight Track Log - Related Links

Times and Time Zones

All times are in EDT time to prevent confusion due to time zone crossing. See the TSS5 flight status page for this flight to view local times or setup timezone preferences in your user account.

Time Position Orientation Groundspeed Altitude Reporting Facility
EDT Latitude Longitude Course Direction KTS MPH feet Rate Location/Type
08:55PM 40.8933 -90.5647 140° Southeast 105 121 3,800  Level Chicago Center
08:56PM 40.8706 -90.5392 140° Southeast 106 122 4,700 720 Climbing Chicago Center
08:57PM 40.8439 -90.5106 141° Southeast 113 130 5,400 720 Climbing Chicago Center
08:58PM 40.8167 -90.4753 136° Southeast 124 143 6,200 720 Climbing Chicago Center
08:59PM 40.7792 -90.4367 142° Southeast 137 158 7,000 420 Climbing Chicago Center
09:00PM 40.7475 -90.3989 138° Southeast 145 167 7,100  Climbing Chicago Center
09:01PM 40.7106 -90.3589 141° Southeast 158 182 7,100  Level Chicago Center
09:02PM 40.6736 -90.3172 139° Southeast 168 193 7,100  Level Chicago Center
09:03PM 40.6375 -90.2772 140° Southeast 170 196 7,200  Climbing Chicago Center
09:04PM 40.6019 -90.2381 140° Southeast 169 194 7,200  Level Chicago Center
09:05PM 40.5583 -90.1903 140° Southeast 170 196 7,200  Level Chicago Center
09:06PM 40.5225 -90.1492 139° Southeast 171 197 7,200  Level Chicago Center
09:07PM 40.4869 -90.1078 138° Southeast 171 197 7,200  Level Chicago Center
09:08PM 40.4514 -90.0658 138° Southeast 173 199 7,200 -60 Level Chicago Center
09:09PM 40.4064 -90.0194 142° Southeast 173 199 7,100  Descending Chicago Center
09:10PM 40.3631 -89.9714 140° Southeast 172 198 7,200  Climbing Chicago Center
09:11PM 40.3419 -89.9481 140° Southeast 171 197 7,100 -60 Descending Kansas City Center
09:12PM 40.3061 -89.9092 140° Southeast 169 194 7,100  Level Kansas City Center
09:13PM 40.2692 -89.8689 140° Southeast 170 196 7,100  Level Kansas City Center
09:14PM 40.2253 -89.8219 141° Southeast 171 197 7,100  Level Kansas City Center
09:15PM 40.1894 -89.7819 140° Southeast 170 196 7,100  Level Kansas City Center
09:16PM 40.1528 -89.7417 140° Southeast 170 196 7,100  Level Kansas City Center
09:17PM 40.1164 -89.7028 141° Southeast 171 197 7,100  Level Kansas City Center
09:18PM 40.0794 -89.6639 141° Southeast 170 196 7,100  Level Kansas City Center
09:19PM 40.0433 -89.6236 140° Southeast 170 196 7,100  Level Kansas City Center
09:20PM 40.0058 -89.5828 140° Southeast 173 199 7,100  Level Kansas City Center
09:21PM 39.9689 -89.5431 141° Southeast 173 199 7,100  Level Kansas City Center
09:22PM 39.9242 -89.4947 140° Southeast 173 199 7,100  Level Kansas City Center
09:23PM 39.8936 -89.4622 141° Southeast 174 200 7,100  Level Kansas City Center
09:24PM 39.8556 -89.4222 141° Southeast 175 201 7,100  Level Kansas City Center
09:25PM 39.8186 -89.3808 139° Southeast 175 201 7,100  Level Kansas City Center
09:26PM 39.7814 -89.3408 140° Southeast 175 201 7,100  Level Kansas City Center
09:27PM 39.7439 -89.3019 141° Southeast 174 200 7,100  Level Kansas City Center
09:28PM 39.7064 -89.2622 141° Southeast 174 200 7,100  Level Kansas City Center
09:29PM 39.6697 -89.2231 141° Southeast 173 199 7,100  Level Kansas City Center
09:30PM 39.6311 -89.1847 143° Southeast 173 199 7,100  Level Kansas City Center
09:31PM 39.5878 -89.1364 139° Southeast 172 198 7,100  Level Kansas City Center
09:32PM 39.5514 -89.0961 140° Southeast 172 198 7,100  Level Kansas City Center
09:33PM 39.5144 -89.0564 140° Southeast 172 198 7,100  Level Kansas City Center
09:34PM 39.4772 -89.0172 141° Southeast 172 198 7,100  Level Kansas City Center
09:35PM 39.4394 -88.9761 140° Southeast 175 201 7,100  Level Kansas City Center
09:36PM 39.4028 -88.9356 139° Southeast 174 200 7,100  Level Kansas City Center
09:38PM 39.3650 -88.8947 140° Southeast 176 203 7,100  Level Kansas City Center
09:39PM 39.3261 -88.8558 142° Southeast 176 203 7,100  Level Kansas City Center
09:40PM 39.2886 -88.8150 140° Southeast 177 204 7,100  Level Kansas City Center
09:41PM 39.2431 -88.7675 141° Southeast 176 203 7,100  Level Kansas City Center
09:42PM 39.2044 -88.7272 141° Southeast 177 204 7,100  Level Kansas City Center
09:43PM 39.1664 -88.6867 140° Southeast 178 205 7,100  Level Kansas City Center
09:44PM 39.1297 -88.6475 140° Southeast 179 206 7,100  Level Kansas City Center
09:45PM 39.0864 -88.6008 140° Southeast 179 206 7,100  Level Kansas City Center
09:46PM 39.0542 -88.5661 140° Southeast 176 203 7,100  Level Kansas City Center
09:47PM 39.0147 -88.5272 143° Southeast 177 204 7,100  Level Kansas City Center
09:48PM 38.9664 -88.4772 141° Southeast 183 211 7,100  Level Kansas City Center
09:49PM 38.9275 -88.4375 142° Southeast 181 208 7,100  Level Kansas City Center
09:50PM 38.8878 -88.3967 141° Southeast 180 207 7,100  Level Kansas City Center
09:51PM 38.8503 -88.3556 140° Southeast 179 206 7,100  Level Kansas City Center
09:52PM 38.8117 -88.3169 142° Southeast 177 204 7,100  Level Kansas City Center
09:53PM 38.7733 -88.2750 140° Southeast 178 205 7,100  Level Kansas City Center
09:54PM 38.7339 -88.2358 142° Southeast 179 206 7,100  Level Kansas City Center
09:55PM 38.6944 -88.1961 142° Southeast 179 206 7,100  Level Kansas City Center
09:56PM 38.6558 -88.1550 140° Southeast 180 207 7,100  Level Kansas City Center
09:57PM 38.6158 -88.1147 142° Southeast 181 208 7,100  Level Kansas City Center
09:57PM 38.5922 -88.0914 142° Southeast 181 208 7,100 -120 Level Indianapolis Center
09:58PM 38.5531 -88.0500 140° Southeast 182 209 7,000 -300 Descending Indianapolis Center
09:59PM 38.5117 -88.0056 140° Southeast 188 216 6,500 -540 Descending Indianapolis Center
10:01PM 38.4681 -87.9631 143° Southeast 194 223 6,000 -540 Descending Indianapolis Center
10:02PM 38.4236 -87.9172 141° Southeast 200 230 5,400 -600 Descending Indianapolis Center
10:03PM 38.3797 -87.8744 143° Southeast 200 230 4,900 -540 Descending Indianapolis Center
10:04PM 38.3356 -87.8303 142° Southeast 200 230 4,400 -540 Descending Indianapolis Center
10:05PM 38.2833 -87.7781 142° Southeast 200 230 3,800 -540 Descending Indianapolis Center
10:06PM 38.2408 -87.7336 141° Southeast 199 229 3,300 -600 Descending Indianapolis Center
10:07PM 38.1986 -87.6892 140° Southeast 198 228 2,700 -480 Descending Indianapolis Center
10:08PM 38.1628 -87.6408 133° Southeast 194 223 2,400 -240 Descending Indianapolis Center
10:09PM 38.1333 -87.5936 128° Southeast 184 212 2,300 -180 Descending Indianapolis Center
10:10PM 38.1100 -87.5614 133° Southeast 153 176 2,100 -240 Descending Indianapolis Center